createdAt,value
2019-04-10T00:00:08.861Z,302.46
2019-04-10T00:01:09.632Z,302.38
2019-04-10T00:02:09.103Z,302.24
2019-04-10T00:03:22.294Z,302.40
2019-04-10T00:04:10.487Z,302.41
2019-04-10T00:05:09.707Z,302.30
2019-04-10T00:06:08.835Z,302.33
2019-04-10T00:07:14.961Z,302.34
2019-04-10T00:08:10.181Z,302.27
2019-04-10T00:09:08.788Z,302.23
2019-04-10T00:10:09.730Z,302.40
2019-04-10T00:11:08.785Z,302.33
2019-04-10T00:12:09.502Z,302.28
2019-04-10T00:13:08.790Z,302.27
2019-04-10T00:14:08.819Z,302.47
2019-04-10T00:15:09.260Z,302.27
2019-04-10T00:16:08.714Z,302.27
2019-04-10T00:17:08.992Z,302.21
2019-04-10T00:18:09.443Z,302.25
2019-04-10T00:19:08.795Z,302.12
2019-04-10T00:20:08.682Z,302.44
2019-04-10T00:21:09.118Z,302.48
2019-04-10T00:22:09.692Z,302.42
2019-04-10T00:23:08.980Z,302.23
2019-04-10T00:24:08.629Z,302.38
2019-04-10T00:25:08.640Z,302.32
2019-04-10T00:26:09.818Z,302.34
2019-04-10T00:27:08.640Z,302.30
2019-04-10T00:28:09.508Z,302.54
2019-04-10T00:29:08.602Z,302.45
2019-04-10T00:30:09.077Z,302.54
2019-04-10T00:31:09.462Z,302.30
2019-04-10T00:32:08.596Z,302.31
2019-04-10T00:33:10.177Z,302.33
2019-04-10T00:34:09.412Z,302.40
2019-04-10T00:35:08.497Z,302.33
2019-04-10T00:36:08.518Z,302.50
2019-04-10T00:37:21.279Z,302.51
2019-04-10T00:38:09.533Z,302.32
2019-04-10T00:39:08.659Z,302.43
2019-04-10T00:40:08.829Z,302.43
2019-04-10T00:41:08.496Z,302.28
2019-04-10T00:42:08.550Z,302.59
2019-04-10T00:43:08.718Z,302.58
2019-04-10T00:44:08.422Z,302.35
2019-04-10T00:45:09.149Z,302.48
2019-04-10T00:46:08.453Z,302.41
2019-04-10T00:47:08.721Z,302.40
2019-04-10T00:48:08.438Z,302.40
2019-04-10T00:49:09.239Z,302.57
2019-04-10T00:50:08.577Z,302.59
2019-04-10T00:51:08.871Z,302.41
2019-04-10T00:52:08.353Z,302.55
2019-04-10T00:53:08.520Z,302.47
2019-04-10T00:54:08.305Z,302.67
2019-04-10T00:55:08.349Z,302.53
2019-04-10T00:56:08.435Z,302.24
2019-04-10T00:57:09.248Z,302.43
2019-04-10T00:58:08.288Z,302.26
2019-04-10T00:59:08.883Z,302.15
2019-04-10T01:00:08.567Z,302.43
2019-04-10T01:01:08.245Z,302.39
2019-04-10T01:02:08.273Z,302.40
2019-04-10T01:03:09.281Z,302.33
2019-04-10T01:04:08.228Z,302.56
2019-04-10T01:05:09.038Z,302.49
2019-04-10T01:06:08.223Z,302.43
2019-04-10T01:07:08.643Z,302.53
2019-04-10T01:08:08.740Z,302.27
2019-04-10T01:09:09.030Z,302.41
2019-04-10T01:10:08.257Z,302.65
2019-04-10T01:11:08.570Z,302.22
2019-04-10T01:12:08.120Z,302.48
2019-04-10T01:13:08.437Z,302.21
2019-04-10T01:14:08.095Z,302.27
2019-04-10T01:15:08.104Z,302.50
2019-04-10T01:16:09.151Z,302.42
2019-04-10T01:17:08.345Z,302.44
2019-04-10T01:18:08.113Z,302.40
2019-04-10T01:19:08.053Z,302.43
2019-04-10T01:20:09.078Z,302.47
2019-04-10T01:21:08.326Z,302.44
2019-04-10T01:22:08.626Z,302.44
2019-04-10T01:23:08.025Z,302.41
2019-04-10T01:24:08.998Z,302.38
2019-04-10T01:25:08.268Z,302.56
2019-04-10T01:26:07.960Z,302.52
2019-04-10T01:27:08.049Z,302.64
2019-04-10T01:28:08.744Z,302.63
2019-04-10T01:29:08.007Z,302.60
2019-04-10T01:30:08.678Z,302.45
2019-04-10T01:31:07.919Z,302.37
2019-04-10T01:32:07.962Z,302.61
2019-04-10T01:33:08.231Z,302.49
2019-04-10T01:34:07.932Z,302.40
2019-04-10T01:35:07.927Z,302.58
2019-04-10T01:36:08.865Z,302.48
2019-04-10T01:37:08.320Z,302.59
2019-04-10T01:38:07.912Z,302.67
2019-04-10T01:39:08.715Z,302.52
2019-04-10T01:40:07.865Z,302.54
2019-04-10T01:41:07.821Z,302.49
2019-04-10T01:42:08.205Z,302.53
2019-04-10T01:43:12.839Z,302.57
2019-04-10T01:44:08.798Z,302.68
2019-04-10T01:45:07.782Z,302.54
2019-04-10T01:46:08.356Z,302.30
2019-04-10T01:47:07.853Z,302.69
2019-04-10T01:48:07.961Z,302.41
2019-04-10T01:49:07.729Z,302.56
2019-04-10T01:50:08.329Z,302.54
2019-04-10T01:51:08.700Z,302.49
2019-04-10T01:52:08.828Z,302.48
2019-04-10T01:53:07.702Z,302.46
2019-04-10T01:54:07.676Z,302.56
2019-04-10T01:55:19.138Z,302.58
2019-04-10T01:56:21.249Z,302.62
2019-04-10T01:57:08.645Z,302.45
2019-04-10T01:58:08.525Z,302.38
2019-04-10T01:59:07.784Z,302.57
2019-04-10T02:00:07.625Z,302.61
2019-04-10T02:01:08.106Z,302.63
2019-04-10T02:02:09.209Z,302.55
2019-04-10T02:03:07.727Z,302.41
2019-04-10T02:04:07.574Z,302.53
2019-04-10T02:05:08.155Z,302.65
2019-04-10T02:06:07.586Z,302.75
2019-04-10T02:07:07.690Z,302.52
2019-04-10T02:08:10.347Z,302.54
2019-04-10T02:09:08.506Z,302.59
2019-04-10T02:10:07.903Z,302.40
2019-04-10T02:11:07.506Z,302.66
2019-04-10T02:12:07.523Z,302.41
2019-04-10T02:13:07.500Z,302.50
2019-04-10T02:14:07.823Z,302.54
2019-04-10T02:15:11.241Z,302.52
2019-04-10T02:16:08.451Z,302.57
2019-04-10T02:17:08.435Z,302.70
2019-04-10T02:18:07.403Z,302.44
2019-04-10T02:19:08.181Z,302.77
2019-04-10T02:20:07.423Z,302.43
2019-04-10T02:21:07.553Z,302.68
2019-04-10T02:22:08.542Z,302.74
2019-04-10T02:23:07.463Z,302.68
2019-04-10T02:24:07.373Z,302.50
2019-04-10T02:25:07.372Z,302.45
2019-04-10T02:26:07.476Z,302.42
2019-04-10T02:27:07.864Z,302.61
2019-04-10T02:28:07.404Z,302.63
2019-04-10T02:29:07.388Z,302.65
2019-04-10T02:30:09.742Z,302.61
2019-04-10T02:31:07.359Z,302.49
2019-04-10T02:32:08.050Z,302.68
2019-04-10T02:33:08.362Z,302.76
2019-04-10T02:34:08.959Z,302.64
2019-04-10T02:35:10.518Z,302.78
2019-04-10T02:36:08.548Z,302.69
2019-04-10T02:37:08.573Z,302.54
2019-04-10T02:38:26.122Z,302.62
2019-04-10T02:39:19.186Z,302.62
2019-04-10T02:40:09.893Z,302.62
2019-04-10T02:41:08.483Z,302.70
2019-04-10T02:42:08.243Z,302.81
2019-04-10T02:43:08.407Z,302.61
2019-04-10T02:44:08.057Z,302.60
2019-04-10T02:45:08.444Z,302.75
2019-04-10T02:46:08.419Z,302.66
2019-04-10T02:47:07.185Z,302.60
2019-04-10T02:48:08.023Z,302.81
2019-04-10T02:49:08.262Z,302.76
2019-04-10T02:50:08.335Z,302.73
2019-04-10T02:51:07.693Z,302.58
2019-04-10T02:52:08.655Z,302.72
2019-04-10T02:53:07.754Z,302.40
2019-04-10T02:54:07.049Z,302.61
2019-04-10T02:55:07.788Z,302.48
2019-04-10T02:56:07.257Z,302.61
2019-04-10T02:57:07.470Z,302.77
2019-04-10T02:58:07.979Z,302.70
2019-04-10T02:59:07.420Z,302.70
2019-04-10T03:00:08.329Z,302.67
2019-04-10T03:01:07.105Z,302.55
2019-04-10T03:02:08.322Z,302.80
2019-04-10T03:03:07.323Z,302.62
2019-04-10T03:04:09.017Z,302.92
2019-04-10T03:05:07.211Z,302.74
2019-04-10T03:06:07.364Z,302.81
2019-04-10T03:07:07.628Z,302.75
2019-04-10T03:08:07.513Z,302.88
2019-04-10T03:09:19.170Z,302.93
2019-04-10T03:10:18.957Z,302.97
2019-04-10T03:11:11.550Z,302.72
2019-04-10T03:12:08.510Z,302.70
2019-04-10T03:13:06.891Z,302.75
2019-04-10T03:14:07.979Z,302.81
2019-04-10T03:15:08.635Z,303.08
2019-04-10T03:16:07.517Z,302.80
2019-04-10T03:17:07.977Z,302.91
2019-04-10T03:18:06.821Z,302.87
2019-04-10T03:19:07.438Z,302.75
2019-04-10T03:20:07.832Z,302.99
2019-04-10T03:21:06.903Z,302.89
2019-04-10T03:22:07.901Z,303.02
2019-04-10T03:23:07.325Z,302.81
2019-04-10T03:24:06.750Z,302.83
2019-04-10T03:25:06.755Z,302.77
2019-04-10T03:26:07.615Z,302.64
2019-04-10T03:27:06.922Z,302.65
2019-04-10T03:28:07.118Z,302.87
2019-04-10T03:29:07.453Z,302.60
2019-04-10T03:30:07.612Z,302.60
2019-04-10T03:31:07.955Z,302.68
2019-04-10T03:32:07.190Z,302.76
2019-04-10T03:33:11.400Z,302.68
2019-04-10T03:34:09.247Z,302.50
2019-04-10T03:35:06.652Z,302.67
2019-04-10T03:36:07.362Z,302.64
2019-04-10T03:37:07.593Z,302.65
2019-04-10T03:38:07.575Z,302.61
2019-04-10T03:39:07.922Z,302.76
2019-04-10T03:40:07.027Z,302.82
2019-04-10T03:41:06.555Z,302.76
2019-04-10T03:42:06.602Z,302.69
2019-04-10T03:43:07.604Z,302.57
2019-04-10T03:44:06.559Z,302.74
2019-04-10T03:45:07.546Z,302.63
2019-04-10T03:46:06.556Z,302.67
2019-04-10T03:47:07.125Z,302.52
2019-04-10T03:48:06.531Z,302.65
2019-04-10T03:49:06.538Z,302.62
2019-04-10T03:50:06.709Z,302.66
2019-04-10T03:51:06.506Z,302.51
2019-04-10T03:52:07.248Z,302.72
2019-04-10T03:53:07.547Z,302.64
2019-04-10T03:54:06.879Z,302.50
2019-04-10T03:55:06.433Z,302.55
2019-04-10T03:56:07.489Z,302.94
2019-04-10T03:57:06.665Z,302.76
2019-04-10T03:58:07.140Z,302.82
2019-04-10T03:59:06.423Z,302.73
2019-04-10T04:00:06.956Z,302.70
2019-04-10T04:01:06.905Z,302.49
2019-04-10T04:02:07.235Z,302.47
2019-04-10T04:03:06.536Z,302.56
2019-04-10T04:04:07.067Z,302.50
2019-04-10T04:05:06.565Z,302.55
2019-04-10T04:06:07.034Z,302.67
2019-04-10T04:07:07.073Z,302.64
2019-04-10T04:08:07.477Z,302.54
2019-04-10T04:09:10.851Z,302.58
2019-04-10T04:10:07.285Z,302.63
2019-04-10T04:11:07.187Z,302.83
2019-04-10T04:12:06.380Z,302.69
2019-04-10T04:13:07.507Z,302.74
2019-04-10T04:14:06.290Z,303.00
2019-04-10T04:15:07.055Z,302.83
2019-04-10T04:16:06.759Z,302.74
2019-04-10T04:17:06.250Z,302.64
2019-04-10T04:18:06.191Z,302.80
2019-04-10T04:19:06.174Z,302.87
2019-04-10T04:20:06.485Z,302.84
2019-04-10T04:21:06.152Z,302.88
2019-04-10T04:22:06.200Z,302.78
2019-04-10T04:23:06.134Z,302.89
2019-04-10T04:24:07.128Z,302.69
2019-04-10T04:25:06.751Z,302.83
2019-04-10T04:26:07.184Z,302.90
2019-04-10T04:27:06.216Z,302.92
2019-04-10T04:28:06.663Z,302.71
2019-04-10T04:29:06.094Z,302.90
2019-04-10T04:30:06.387Z,302.93
2019-04-10T04:31:07.170Z,303.08
2019-04-10T04:32:06.980Z,302.91
2019-04-10T04:33:06.654Z,302.98
2019-04-10T04:34:06.225Z,302.87
2019-04-10T04:35:06.029Z,302.83
2019-04-10T04:36:06.172Z,302.74
2019-04-10T04:37:06.033Z,302.75
2019-04-10T04:38:16.204Z,302.90
2019-04-10T04:39:17.654Z,302.73
2019-04-10T04:40:06.940Z,302.74
2019-04-10T04:41:06.846Z,302.81
2019-04-10T04:42:06.955Z,302.84
2019-04-10T04:43:06.023Z,302.80
2019-04-10T04:44:06.064Z,302.82
2019-04-10T04:45:05.983Z,302.84
2019-04-10T04:46:16.000Z,302.99
2019-04-10T04:47:06.319Z,303.08
2019-04-10T04:48:05.864Z,302.99
2019-04-10T04:49:06.807Z,302.98
2019-04-10T04:50:05.846Z,303.01
2019-04-10T04:51:06.725Z,302.97
2019-04-10T04:52:07.065Z,303.15
2019-04-10T04:53:06.623Z,302.91
2019-04-10T04:54:06.693Z,302.92
2019-04-10T04:55:06.025Z,303.13
2019-04-10T04:56:05.996Z,303.11
2019-04-10T04:57:06.581Z,303.07
2019-04-10T04:58:06.206Z,303.04
2019-04-10T04:59:05.987Z,303.07
2019-04-10T05:00:06.265Z,302.85
2019-04-10T05:01:06.277Z,302.98
2019-04-10T05:02:05.903Z,303.00
2019-04-10T05:03:05.727Z,303.06
2019-04-10T05:04:06.762Z,303.02
2019-04-10T05:05:06.627Z,303.13
2019-04-10T05:06:06.004Z,303.03
2019-04-10T05:07:06.297Z,303.07
2019-04-10T05:08:06.865Z,303.13
2019-04-10T05:09:06.581Z,302.93
2019-04-10T05:10:06.931Z,303.12
2019-04-10T05:11:06.436Z,303.07
2019-04-10T05:12:05.654Z,303.11
2019-04-10T05:13:06.137Z,303.16
2019-04-10T05:14:06.936Z,302.99
2019-04-10T05:15:13.255Z,303.25
2019-04-10T05:16:06.142Z,303.21
2019-04-10T05:17:05.974Z,303.25
2019-04-10T05:18:06.241Z,303.39
2019-04-10T05:19:05.551Z,303.20
2019-04-10T05:20:05.622Z,303.31
2019-04-10T05:21:05.605Z,303.12
2019-04-10T05:22:06.024Z,302.94
2019-04-10T05:23:06.196Z,303.04
2019-04-10T05:24:05.502Z,303.11
2019-04-10T05:25:05.490Z,303.25
2019-04-10T05:26:06.118Z,303.17
2019-04-10T05:27:05.801Z,303.30
2019-04-10T05:28:05.806Z,303.16
2019-04-10T05:29:05.519Z,303.31
2019-04-10T05:30:06.227Z,303.32
2019-04-10T05:31:06.640Z,303.22
2019-04-10T05:32:05.493Z,303.29
2019-04-10T05:33:06.291Z,303.23
2019-04-10T05:34:05.417Z,303.14
2019-04-10T05:35:08.118Z,303.27
2019-04-10T05:36:06.933Z,303.28
2019-04-10T05:37:05.476Z,303.15
2019-04-10T05:38:05.411Z,303.10
2019-04-10T05:39:06.298Z,303.17
2019-04-10T05:40:05.545Z,303.26
2019-04-10T05:41:05.325Z,303.26
2019-04-10T05:42:06.315Z,303.25
2019-04-10T05:43:05.842Z,303.30
2019-04-10T05:44:05.295Z,303.15
2019-04-10T05:45:05.339Z,303.18
2019-04-10T05:46:05.275Z,303.27
2019-04-10T05:47:05.429Z,303.39
2019-04-10T05:48:05.265Z,302.88
2019-04-10T05:49:05.239Z,303.20
2019-04-10T05:50:06.101Z,303.10
2019-04-10T05:51:07.477Z,303.25
2019-04-10T05:52:06.138Z,303.21
2019-04-10T05:53:05.288Z,303.24
2019-04-10T05:54:06.232Z,303.27
2019-04-10T05:55:06.253Z,302.95
2019-04-10T05:56:05.613Z,303.19
2019-04-10T05:57:06.099Z,303.06
2019-04-10T05:58:05.676Z,303.20
2019-04-10T05:59:05.280Z,303.22
2019-04-10T06:00:05.200Z,303.29
2019-04-10T06:01:05.340Z,303.32
2019-04-10T06:02:06.531Z,303.18
2019-04-10T06:03:06.181Z,303.18
2019-04-10T06:04:05.199Z,303.35
2019-04-10T06:05:05.644Z,303.60
2019-04-10T06:06:06.175Z,303.25
2019-04-10T06:07:05.307Z,303.43
2019-04-10T06:08:05.709Z,303.25
2019-04-10T06:09:05.066Z,303.31
2019-04-10T06:10:08.651Z,303.17
2019-04-10T06:11:06.657Z,303.30
2019-04-10T06:12:05.810Z,303.15
2019-04-10T06:13:05.029Z,303.27
2019-04-10T06:14:05.259Z,303.23
2019-04-10T06:15:05.046Z,303.25
2019-04-10T06:16:05.615Z,303.41
2019-04-10T06:17:05.979Z,303.20
2019-04-10T06:18:05.056Z,303.27
2019-04-10T06:19:04.993Z,303.39
2019-04-10T06:20:05.048Z,303.30
2019-04-10T06:21:05.143Z,303.43
2019-04-10T06:22:05.256Z,303.31
2019-04-10T06:23:05.283Z,303.33
2019-04-10T06:24:05.834Z,303.31
2019-04-10T06:25:07.868Z,303.35
2019-04-10T06:26:05.284Z,303.23
2019-04-10T06:27:04.918Z,303.27
2019-04-10T06:28:05.321Z,303.32
2019-04-10T06:29:05.009Z,303.35
2019-04-10T06:30:05.709Z,303.18
2019-04-10T06:31:06.143Z,303.41
2019-04-10T06:32:05.314Z,303.42
2019-04-10T06:33:04.785Z,303.32
2019-04-10T06:34:04.793Z,303.19
2019-04-10T06:35:05.711Z,303.30
2019-04-10T06:36:04.987Z,303.20
2019-04-10T06:37:06.045Z,303.22
2019-04-10T06:38:04.733Z,303.10
2019-04-10T06:39:04.745Z,303.29
2019-04-10T06:40:13.183Z,303.36
2019-04-10T06:41:06.270Z,303.24
2019-04-10T06:42:04.775Z,303.38
2019-04-10T06:43:04.686Z,303.20
2019-04-10T06:44:05.679Z,303.18
2019-04-10T06:45:05.742Z,303.17
2019-04-10T06:46:04.665Z,302.85
2019-04-10T06:47:04.633Z,303.17
2019-04-10T06:48:04.763Z,302.98
2019-04-10T06:49:05.570Z,303.01
2019-04-10T06:50:04.615Z,302.98
2019-04-10T06:51:04.596Z,303.40
2019-04-10T06:52:04.648Z,303.03
2019-04-10T06:53:04.614Z,303.04
2019-04-10T06:54:08.106Z,303.12
2019-04-10T06:55:05.547Z,302.87
2019-04-10T06:56:04.898Z,303.08
2019-04-10T06:57:04.534Z,302.94
2019-04-10T06:58:04.722Z,303.04
2019-04-10T06:59:04.654Z,302.93
2019-04-10T07:00:04.509Z,303.01
2019-04-10T07:01:04.497Z,302.89
2019-04-10T07:02:16.668Z,302.96
2019-04-10T07:03:06.484Z,303.06
2019-04-10T07:04:07.553Z,303.08
2019-04-10T07:05:07.447Z,302.98
2019-04-10T07:06:12.274Z,303.06
2019-04-10T07:07:10.694Z,302.76
2019-04-10T07:08:12.386Z,303.04
2019-04-10T07:09:05.469Z,302.73
2019-04-10T07:10:18.922Z,303.01
2019-04-10T07:11:09.054Z,303.06
2019-04-10T07:12:05.394Z,302.92
2019-04-10T07:13:07.742Z,302.75
2019-04-10T07:14:09.928Z,302.90
2019-04-10T07:15:05.406Z,303.16
2019-04-10T07:16:04.341Z,302.83
2019-04-10T07:17:06.954Z,302.84
2019-04-10T07:18:04.308Z,303.05
2019-04-10T07:19:07.235Z,302.95
2019-04-10T07:20:05.336Z,303.06
2019-04-10T07:21:04.302Z,302.83
2019-04-10T07:22:08.645Z,302.85
2019-04-10T07:23:05.274Z,303.12
2019-04-10T07:24:06.738Z,303.09
2019-04-10T07:25:04.734Z,302.96
2019-04-10T07:26:04.259Z,302.92
2019-04-10T07:27:05.289Z,302.91
2019-04-10T07:28:07.378Z,302.99
2019-04-10T07:29:04.652Z,302.97
2019-04-10T07:30:04.205Z,303.01
2019-04-10T07:31:07.255Z,302.95
2019-04-10T07:32:07.830Z,303.13
2019-04-10T07:33:04.172Z,302.91
2019-04-10T07:34:04.143Z,302.88
2019-04-10T07:35:04.159Z,302.90
2019-04-10T07:36:08.553Z,302.87
2019-04-10T07:37:05.741Z,302.75
2019-04-10T07:38:04.123Z,302.85
2019-04-10T07:39:04.119Z,302.92
2019-04-10T07:40:04.611Z,302.82
2019-04-10T07:41:11.128Z,302.92
2019-04-10T07:42:06.134Z,302.84
2019-04-10T07:43:04.246Z,302.83
2019-04-10T07:44:04.041Z,302.86
2019-04-10T07:45:04.076Z,302.70
2019-04-10T07:46:04.012Z,302.70
2019-04-10T07:47:04.792Z,302.75
2019-04-10T07:48:04.523Z,302.44
2019-04-10T07:49:04.002Z,302.55
2019-04-10T07:50:05.122Z,302.44
2019-04-10T07:51:04.887Z,302.36
2019-04-10T07:52:04.831Z,302.70
2019-04-10T07:53:04.036Z,302.72
2019-04-10T07:54:04.128Z,302.64
2019-04-10T07:55:04.482Z,302.69
2019-04-10T07:56:07.609Z,302.58
2019-04-10T07:57:04.897Z,302.60
2019-04-10T07:58:04.792Z,302.68
2019-04-10T07:59:04.631Z,302.72
2019-04-10T08:00:04.034Z,302.82
2019-04-10T08:01:05.112Z,302.83
2019-04-10T08:02:05.924Z,302.71
2019-04-10T08:03:04.180Z,302.65
2019-04-10T08:04:04.158Z,302.79
2019-04-10T08:05:04.345Z,302.59
2019-04-10T08:06:04.172Z,302.95
2019-04-10T08:07:05.078Z,302.91
2019-04-10T08:08:05.029Z,302.65
2019-04-10T08:09:04.056Z,303.04
2019-04-10T08:10:03.782Z,302.87
2019-04-10T08:11:04.933Z,302.82
2019-04-10T08:12:03.774Z,302.69
2019-04-10T08:13:04.582Z,302.93
2019-04-10T08:14:06.658Z,303.06
2019-04-10T08:15:04.905Z,302.91
2019-04-10T08:16:03.764Z,302.82
2019-04-10T08:17:03.830Z,302.95
2019-04-10T08:18:04.579Z,302.90
2019-04-10T08:19:04.111Z,302.77
2019-04-10T08:20:03.826Z,303.08
2019-04-10T08:21:04.932Z,302.85
2019-04-10T08:22:03.760Z,302.86
2019-04-10T08:23:03.711Z,302.71
2019-04-10T08:24:03.763Z,302.93
2019-04-10T08:25:04.398Z,302.89
2019-04-10T08:26:03.661Z,302.82
2019-04-10T08:27:05.354Z,302.83
2019-04-10T08:28:03.614Z,302.55
2019-04-10T08:29:03.683Z,302.70
2019-04-10T08:30:03.718Z,302.67
2019-04-10T08:31:04.421Z,302.65
2019-04-10T08:32:03.565Z,302.66
2019-04-10T08:33:05.924Z,302.70
2019-04-10T08:34:03.515Z,302.63
2019-04-10T08:35:04.559Z,302.54
2019-04-10T08:36:03.498Z,302.43
2019-04-10T08:37:03.822Z,302.35
2019-04-10T08:38:03.496Z,302.55
2019-04-10T08:39:04.628Z,302.45
2019-04-10T08:40:03.480Z,302.55
2019-04-10T08:41:03.459Z,302.43
2019-04-10T08:42:03.460Z,302.35
2019-04-10T08:43:04.161Z,302.35
2019-04-10T08:44:04.351Z,302.59
2019-04-10T08:45:03.426Z,302.73
2019-04-10T08:46:03.531Z,302.74
2019-04-10T08:47:03.475Z,302.78
2019-04-10T08:48:03.632Z,302.76
2019-04-10T08:49:03.562Z,302.83
2019-04-10T08:50:03.634Z,302.63
2019-04-10T08:51:03.349Z,302.80
2019-04-10T08:52:04.010Z,302.96
2019-04-10T08:53:04.142Z,302.77
2019-04-10T08:54:03.323Z,302.86
2019-04-10T08:55:03.851Z,302.64
2019-04-10T08:56:04.418Z,302.65
2019-04-10T08:57:03.346Z,302.71
2019-04-10T08:58:03.265Z,302.94
2019-04-10T08:59:03.456Z,302.73
2019-04-10T09:00:03.239Z,302.61
2019-04-10T09:01:03.225Z,302.86
2019-04-10T09:02:03.975Z,302.80
2019-04-10T09:03:03.377Z,303.02
2019-04-10T09:04:03.618Z,302.89
2019-04-10T09:05:03.632Z,302.89
2019-04-10T09:06:03.201Z,302.90
2019-04-10T09:07:04.283Z,302.80
2019-04-10T09:08:04.421Z,302.99
2019-04-10T09:09:03.539Z,303.08
2019-04-10T09:10:03.800Z,302.95
2019-04-10T09:11:03.133Z,302.96
2019-04-10T09:12:03.104Z,303.00
2019-04-10T09:13:04.165Z,302.86
2019-04-10T09:14:03.218Z,302.72
2019-04-10T09:15:03.077Z,302.74
2019-04-10T09:16:03.079Z,302.83
2019-04-10T09:17:03.093Z,302.64
2019-04-10T09:18:04.058Z,302.75
2019-04-10T09:19:03.510Z,302.63
2019-04-10T09:20:03.044Z,302.73
2019-04-10T09:21:03.125Z,302.32
2019-04-10T09:22:03.772Z,302.70
2019-04-10T09:23:21.531Z,302.76
2019-04-10T09:24:04.726Z,302.48
2019-04-10T09:25:03.007Z,302.42
2019-04-10T09:26:03.823Z,302.55
2019-04-10T09:27:03.013Z,302.62
2019-04-10T09:28:02.956Z,302.25
2019-04-10T09:29:02.930Z,302.53
2019-04-10T09:30:02.946Z,302.41
2019-04-10T09:31:02.920Z,302.89
2019-04-10T09:32:02.998Z,302.81
2019-04-10T09:33:14.746Z,302.81
2019-04-10T09:34:03.895Z,302.76
2019-04-10T09:35:02.893Z,302.68
2019-04-10T09:36:02.865Z,302.44
2019-04-10T09:37:03.860Z,302.59
2019-04-10T09:38:02.845Z,302.26
2019-04-10T09:39:03.216Z,302.50
2019-04-10T09:40:03.610Z,302.47
2019-04-10T09:41:03.706Z,302.17
2019-04-10T09:42:03.388Z,302.19
2019-04-10T09:43:02.992Z,302.12
2019-04-10T09:44:04.497Z,302.50
2019-04-10T09:45:02.796Z,301.94
2019-04-10T09:46:04.266Z,302.25
2019-04-10T09:47:02.812Z,302.13
2019-04-10T09:48:02.737Z,302.17
2019-04-10T09:49:02.904Z,301.87
2019-04-10T09:50:02.929Z,302.12
2019-04-10T09:51:02.809Z,302.08
2019-04-10T09:52:02.796Z,302.00
2019-04-10T09:53:02.703Z,301.75
2019-04-10T09:54:03.609Z,301.77
2019-04-10T09:55:03.156Z,301.71
2019-04-10T09:56:03.202Z,301.81
2019-04-10T09:57:03.346Z,301.77
2019-04-10T09:58:02.946Z,301.85
2019-04-10T09:59:02.814Z,301.47
2019-04-10T10:00:03.137Z,301.36
2019-04-10T10:01:03.097Z,301.44
2019-04-10T10:02:02.753Z,301.56
2019-04-10T10:03:03.581Z,301.58
2019-04-10T10:04:02.600Z,301.47
2019-04-10T10:05:02.553Z,301.52
2019-04-10T10:06:03.497Z,301.38
2019-04-10T10:07:02.542Z,301.78
2019-04-10T10:08:02.611Z,301.76
2019-04-10T10:09:02.518Z,301.87
2019-04-10T10:10:02.511Z,301.98
2019-04-10T10:11:02.494Z,301.82
2019-04-10T10:12:03.161Z,301.77
2019-04-10T10:13:03.302Z,302.03
2019-04-10T10:14:02.493Z,302.05
2019-04-10T10:15:02.578Z,302.03
2019-04-10T10:16:02.889Z,301.94
2019-04-10T10:17:02.469Z,301.94
2019-04-10T10:18:03.292Z,302.29
2019-04-10T10:19:02.670Z,302.10
2019-04-10T10:20:03.625Z,301.96
2019-04-10T10:21:02.411Z,302.15
2019-04-10T10:22:04.669Z,302.17
2019-04-10T10:23:03.312Z,302.15
2019-04-10T10:24:02.465Z,301.97
2019-04-10T10:25:02.942Z,301.95
2019-04-10T10:26:02.342Z,301.93
2019-04-10T10:27:02.315Z,302.03
2019-04-10T10:28:02.834Z,301.78
2019-04-10T10:29:02.718Z,301.85
2019-04-10T10:30:02.309Z,301.91
2019-04-10T10:31:02.274Z,301.85
2019-04-10T10:32:02.578Z,301.85
2019-04-10T10:33:03.512Z,301.48
2019-04-10T10:34:02.250Z,301.69
2019-04-10T10:35:03.141Z,301.60
2019-04-10T10:36:03.324Z,301.53
2019-04-10T10:37:03.897Z,301.42
2019-04-10T10:38:03.817Z,301.60
2019-04-10T10:39:09.625Z,301.39
2019-04-10T10:40:03.470Z,301.63
2019-04-10T10:41:02.161Z,301.72
2019-04-10T10:42:03.209Z,301.67
2019-04-10T10:43:02.415Z,301.85
2019-04-10T10:44:02.144Z,301.54
2019-04-10T10:45:02.897Z,301.83
2019-04-10T10:46:03.003Z,301.57
2019-04-10T10:48:31.565Z,297.49
2019-04-10T10:49:30.671Z,301.26
2019-04-10T10:50:31.147Z,301.48
2019-04-10T10:51:30.901Z,301.60
2019-04-10T10:52:31.340Z,301.65
2019-04-10T10:53:31.016Z,301.33
2019-04-10T10:54:31.124Z,301.61
2019-04-10T10:55:31.749Z,301.32
2019-04-10T10:56:32.480Z,301.43
2019-04-10T10:57:31.162Z,301.47
2019-04-10T10:58:30.593Z,301.04
2019-04-10T10:59:30.497Z,301.39
2019-04-10T11:00:31.433Z,301.31
2019-04-10T11:01:31.627Z,301.48
2019-04-10T11:02:31.597Z,301.28
2019-04-10T11:03:30.557Z,301.55
2019-04-10T11:04:31.563Z,301.49
2019-04-10T11:05:31.839Z,301.17
2019-04-10T11:06:31.023Z,301.23
2019-04-10T11:07:31.287Z,301.14
2019-04-10T11:08:31.730Z,301.15
2019-04-10T11:09:30.409Z,301.14
2019-04-10T11:10:31.232Z,301.03
2019-04-10T11:11:30.757Z,301.05
2019-04-10T11:12:30.539Z,301.22
2019-04-10T11:13:30.883Z,301.37
2019-04-10T11:14:31.495Z,301.09
2019-04-10T11:15:30.289Z,301.13
2019-04-10T11:16:31.311Z,301.16
2019-04-10T11:17:30.983Z,301.17
2019-04-10T11:18:30.827Z,301.24
2019-04-10T11:19:31.197Z,301.43
2019-04-10T11:20:32.200Z,301.26
2019-04-10T11:21:30.416Z,301.32
2019-04-10T11:22:31.580Z,301.43
2019-04-10T11:23:30.985Z,301.35
2019-04-10T11:24:31.553Z,301.43
2019-04-10T11:25:30.271Z,301.61
2019-04-10T11:26:31.369Z,301.81
2019-04-10T11:27:31.655Z,301.58
2019-04-10T11:28:30.700Z,301.72
2019-04-10T11:29:31.454Z,301.48
2019-04-10T11:30:30.162Z,301.54
2019-04-10T11:31:31.370Z,301.69
2019-04-10T11:32:30.373Z,301.41
2019-04-10T11:33:30.693Z,301.38
2019-04-10T11:34:30.608Z,301.40
2019-04-10T11:35:31.665Z,301.49
2019-04-10T11:36:30.391Z,301.40
2019-04-10T11:37:36.532Z,301.40
2019-04-10T11:38:33.585Z,301.52
2019-04-10T11:39:33.039Z,301.72
2019-04-10T11:40:34.134Z,301.34
2019-04-10T11:41:31.176Z,301.29
2019-04-10T11:42:32.229Z,301.26
2019-04-10T11:43:30.514Z,301.34
2019-04-10T11:44:30.019Z,301.17
2019-04-10T11:45:38.030Z,301.13
2019-04-10T11:46:32.547Z,301.05
2019-04-10T11:47:31.868Z,301.18
2019-04-10T11:48:30.792Z,301.02
2019-04-10T11:49:32.898Z,301.20
2019-04-10T11:50:30.129Z,301.07
2019-04-10T11:51:31.859Z,300.80
2019-04-10T11:52:36.271Z,301.25
2019-04-10T11:53:35.311Z,300.95
2019-04-10T11:54:32.790Z,300.77
2019-04-10T11:55:31.613Z,300.78
2019-04-10T11:56:30.264Z,300.93
2019-04-10T11:57:32.125Z,301.02
2019-04-10T11:58:29.879Z,300.88
2019-04-10T11:59:32.910Z,300.97
2019-04-10T12:00:32.597Z,301.01
2019-04-10T12:01:31.089Z,301.05
2019-04-10T12:02:33.376Z,301.06
2019-04-10T12:03:31.345Z,300.98
2019-04-10T12:04:33.570Z,300.99
2019-04-10T12:05:31.707Z,300.90
2019-04-10T12:06:33.809Z,301.08
2019-04-10T12:08:55.248Z,300.80
2019-04-10T12:11:30.991Z,301.00
2019-04-10T12:12:29.935Z,300.84
2019-04-10T12:13:30.332Z,300.75
2019-04-10T12:14:30.008Z,300.77
2019-04-10T12:15:29.663Z,300.67
2019-04-10T12:16:29.726Z,300.65
2019-04-10T12:17:31.497Z,300.45
2019-04-10T12:18:32.859Z,300.89
2019-04-10T12:19:31.079Z,300.89
2019-04-10T12:20:29.700Z,301.13
2019-04-10T12:21:29.689Z,301.71
2019-04-10T12:22:29.820Z,301.52
2019-04-10T12:23:29.560Z,301.98
2019-04-10T12:24:30.047Z,302.33
2019-04-10T12:25:29.605Z,302.80
2019-04-10T12:26:29.747Z,303.08
2019-04-10T12:27:29.664Z,302.79
2019-04-10T12:28:29.833Z,302.75
2019-04-10T12:29:29.543Z,302.29
2019-04-10T12:30:29.490Z,302.05
2019-04-10T12:31:30.169Z,301.83
2019-04-10T12:32:30.417Z,301.91